Terminal Aerodrome Forecast
Issued by NWS

Home | Current Version | Previous Version | Text Only | Print | Product List | Glossary On
Versions: 1 2 3 4 5 6 7 8 9 10 11 12 13 14 15 16 17 18 19 20 21 22 23 24
000
FTUS45 KCYS 221700
TAFRWL
TAF
KRWL 221732Z 2218/2318 26014G24KT P6SM SCT050 BKN080
     FM221900 23020G32KT P6SM VCTS SCT050CB BKN080
     FM230100 25014G24KT P6SM SCT080
     FM230800 25010KT P6SM SCT080=

USA.gov is the U.S. government's official web portal to all federal, state and local government web resources and services.